createdAt,value
2024-05-09T00:00:43.473Z,10.82
2024-05-09T00:03:31.152Z,10.73
2024-05-09T00:05:58.842Z,10.68
2024-05-09T00:08:26.484Z,10.63
2024-05-09T00:10:54.117Z,10.57
2024-05-09T00:13:21.711Z,10.52
2024-05-09T00:15:49.168Z,10.43
2024-05-09T00:18:16.790Z,10.37
2024-05-09T00:20:44.495Z,10.31
2024-05-09T00:23:13.565Z,10.26
2024-05-09T00:25:45.495Z,10.20
2024-05-09T00:28:13.252Z,10.12
2024-05-09T00:30:41.148Z,10.05
2024-05-09T00:33:10.284Z,10.00
2024-05-09T00:35:39.114Z,9.95
2024-05-09T00:38:07.260Z,9.91
2024-05-09T00:40:39.969Z,9.87
2024-05-09T00:43:12.219Z,9.80
2024-05-09T00:45:40.751Z,9.74
2024-05-09T00:48:11.583Z,9.69
2024-05-09T00:50:43.850Z,9.66
2024-05-09T00:53:13.861Z,9.59
2024-05-09T00:55:42.169Z,9.51
2024-05-09T00:58:14.191Z,9.46
2024-05-09T01:00:42.219Z,9.38
2024-05-09T01:03:12.021Z,9.31
2024-05-09T01:05:44.831Z,9.26
2024-05-09T01:08:13.064Z,9.23
2024-05-09T01:10:44.184Z,9.17
2024-05-09T01:13:13.660Z,9.06
2024-05-09T01:15:41.402Z,9.01
2024-05-09T01:18:13.267Z,8.97
2024-05-09T01:20:44.306Z,8.91
2024-05-09T01:23:15.166Z,8.88
2024-05-09T01:25:45.591Z,8.83
2024-05-09T01:28:14.802Z,8.78
2024-05-09T01:30:42.468Z,8.73
2024-05-09T01:33:11.667Z,8.64
2024-05-09T01:35:40.894Z,8.57
2024-05-09T01:38:12.748Z,8.50
2024-05-09T01:40:40.691Z,8.44
2024-05-09T01:43:09.753Z,8.37
2024-05-09T01:45:40.483Z,8.33
2024-05-09T01:48:10.466Z,8.28
2024-05-09T01:50:41.793Z,8.22
2024-05-09T01:53:13.190Z,8.17
2024-05-09T01:55:41.275Z,8.14
2024-05-09T01:58:09.143Z,8.08
2024-05-09T02:00:40.772Z,8.03
2024-05-09T02:03:15.045Z,7.99
2024-05-09T02:05:46.768Z,7.95
2024-05-09T02:08:18.230Z,7.93
2024-05-09T02:10:48.114Z,7.90
2024-05-09T02:13:16.230Z,7.85
2024-05-09T02:15:44.072Z,7.80
2024-05-09T02:18:12.162Z,7.79
2024-05-09T02:20:42.262Z,7.77
2024-05-09T02:23:10.768Z,7.75
2024-05-09T02:25:38.281Z,7.73
2024-05-09T02:28:06.311Z,7.68
2024-05-09T02:30:39.827Z,7.64
2024-05-09T02:33:11.570Z,7.62
2024-05-09T02:35:42.054Z,7.60
2024-05-09T02:38:10.164Z,7.58
2024-05-09T02:40:39.523Z,7.52
2024-05-09T02:43:10.027Z,7.47
2024-05-09T02:45:40.062Z,7.42
2024-05-09T02:48:13.282Z,7.38
2024-05-09T02:50:43.661Z,7.33
2024-05-09T02:53:12.063Z,7.31
2024-05-09T02:55:41.126Z,7.27
2024-05-09T02:58:09.870Z,7.23
2024-05-09T03:00:41.376Z,7.21
2024-05-09T03:03:12.907Z,7.19
2024-05-09T03:05:43.961Z,7.15
2024-05-09T03:08:12.179Z,7.11
2024-05-09T03:10:40.108Z,7.08
2024-05-09T03:13:08.665Z,7.10
2024-05-09T03:15:36.394Z,7.11
2024-05-09T03:18:05.945Z,7.10
2024-05-09T03:20:35.833Z,7.11
2024-05-09T03:23:08.939Z,7.10
2024-05-09T03:25:38.492Z,7.11
2024-05-09T03:28:06.510Z,7.10
2024-05-09T03:30:40.447Z,7.11
2024-05-09T03:33:11.764Z,7.13
2024-05-09T03:35:39.754Z,7.12
2024-05-09T03:38:07.359Z,7.10
2024-05-09T03:40:35.178Z,7.10
2024-05-09T03:43:02.683Z,7.13
2024-05-09T03:45:30.157Z,7.14
2024-05-09T03:47:58.178Z,7.15
2024-05-09T03:50:30.663Z,7.20
2024-05-09T03:53:03.029Z,7.24
2024-05-09T03:55:30.773Z,7.25
2024-05-09T03:57:58.347Z,7.28
2024-05-09T04:00:34.248Z,7.30
2024-05-09T04:03:07.716Z,7.33
2024-05-09T04:05:39.229Z,7.42
2024-05-09T04:08:07.394Z,7.50
2024-05-09T04:10:35.640Z,7.57
2024-05-09T04:13:04.256Z,7.64
2024-05-09T04:15:32.777Z,7.69
2024-05-09T04:18:01.116Z,7.76
2024-05-09T04:20:37.482Z,7.79
2024-05-09T04:23:11.481Z,7.86
2024-05-09T04:25:41.613Z,7.94
2024-05-09T04:28:09.288Z,7.99
2024-05-09T04:30:40.025Z,8.05
2024-05-09T04:33:13.757Z,8.12
2024-05-09T04:35:43.392Z,8.18
2024-05-09T04:38:15.541Z,8.23
2024-05-09T04:40:43.878Z,8.30
2024-05-09T04:43:15.876Z,8.36
2024-05-09T04:45:43.487Z,8.45
2024-05-09T04:48:11.964Z,8.53
2024-05-09T04:50:40.027Z,8.64
2024-05-09T04:53:11.620Z,8.76
2024-05-09T04:55:40.431Z,8.82
2024-05-09T04:58:08.800Z,8.88
2024-05-09T05:00:38.648Z,8.96
2024-05-09T05:03:10.089Z,9.04
2024-05-09T05:05:41.545Z,9.13
2024-05-09T05:08:17.854Z,9.22
2024-05-09T05:10:47.829Z,9.32
2024-05-09T05:13:17.149Z,9.47
2024-05-09T05:15:46.640Z,9.61
2024-05-09T05:18:15.380Z,9.74
2024-05-09T05:20:43.243Z,9.87
2024-05-09T05:23:13.071Z,10.02
2024-05-09T05:25:43.423Z,10.19
2024-05-09T05:28:11.145Z,10.36
2024-05-09T05:30:40.053Z,10.54
2024-05-09T05:33:19.489Z,10.71
2024-05-09T05:35:47.799Z,11.13
2024-05-09T05:38:15.363Z,12.18
2024-05-09T05:40:42.946Z,13.59
2024-05-09T05:43:18.142Z,14.77
2024-05-09T05:45:46.048Z,15.78
2024-05-09T05:48:17.979Z,16.59
2024-05-09T05:50:45.986Z,17.28
2024-05-09T05:53:14.018Z,17.86
2024-05-09T05:55:42.446Z,18.40
2024-05-09T05:58:11.865Z,18.82
2024-05-09T06:00:41.707Z,19.14
2024-05-09T06:03:12.149Z,19.47
2024-05-09T06:05:40.895Z,19.66
2024-05-09T06:08:09.394Z,19.71
2024-05-09T06:10:39.920Z,19.91
2024-05-09T06:13:10.697Z,20.25
2024-05-09T06:15:39.153Z,20.68
2024-05-09T06:18:11.114Z,21.12
2024-05-09T06:20:41.395Z,21.43
2024-05-09T06:23:10.108Z,21.50
2024-05-09T06:25:38.489Z,21.26
2024-05-09T06:28:06.502Z,20.43
2024-05-09T06:30:39.997Z,19.46
2024-05-09T06:33:12.777Z,18.85
2024-05-09T06:35:42.657Z,18.76
2024-05-09T06:38:10.525Z,19.11
2024-05-09T06:40:41.729Z,19.33
2024-05-09T06:43:14.737Z,19.37
2024-05-09T06:45:43.484Z,19.33
2024-05-09T06:48:11.251Z,19.61
2024-05-09T06:50:40.884Z,20.20
2024-05-09T06:53:10.166Z,20.77
2024-05-09T06:55:39.786Z,21.26
2024-05-09T06:58:08.792Z,21.50
2024-05-09T07:00:39.755Z,21.69
2024-05-09T07:03:10.789Z,21.84
2024-05-09T07:05:42.730Z,21.86
2024-05-09T07:08:11.864Z,21.63
2024-05-09T07:10:39.557Z,21.57
2024-05-09T07:13:14.783Z,21.70
2024-05-09T07:15:42.846Z,21.80
2024-05-09T07:18:20.942Z,21.84
2024-05-09T07:20:49.533Z,22.05
2024-05-09T07:23:18.456Z,22.38
2024-05-09T07:25:46.604Z,22.66
2024-05-09T07:28:19.162Z,22.98
2024-05-09T07:30:49.569Z,23.22
2024-05-09T07:33:23.069Z,23.50
2024-05-09T07:35:52.113Z,23.78
2024-05-09T07:38:19.871Z,24.12
2024-05-09T07:40:47.530Z,24.09
2024-05-09T07:43:15.603Z,24.07
2024-05-09T07:45:54.104Z,24.19
2024-05-09T07:52:38.990Z,24.52
2024-05-09T07:53:49.004Z,24.65
2024-05-09T07:56:22.189Z,24.81
2024-05-09T07:58:52.513Z,24.84
2024-05-09T08:01:21.136Z,24.73
2024-05-09T08:03:48.984Z,24.65
2024-05-09T08:06:16.783Z,24.63
2024-05-09T08:08:46.426Z,24.84
2024-05-09T08:11:13.993Z,25.17
2024-05-09T08:13:41.464Z,25.43
2024-05-09T08:16:09.560Z,25.65
2024-05-09T08:18:40.556Z,25.75
2024-05-09T08:21:08.207Z,25.36
2024-05-09T08:23:36.290Z,25.18
2024-05-09T08:26:03.967Z,25.43
2024-05-09T08:28:31.509Z,25.73
2024-05-09T08:31:00.007Z,25.89
2024-05-09T08:33:28.924Z,25.97
2024-05-09T08:35:56.721Z,26.03
2024-05-09T08:38:24.234Z,26.20
2024-05-09T08:40:51.962Z,26.46
2024-05-09T08:43:20.264Z,26.52
2024-05-09T08:45:49.399Z,26.52
2024-05-09T08:48:19.517Z,26.49
2024-05-09T08:50:49.916Z,26.63
2024-05-09T08:53:19.469Z,26.77
2024-05-09T08:55:47.239Z,26.84
2024-05-09T08:58:17.780Z,26.64
2024-05-09T09:00:46.924Z,26.69
2024-05-09T09:03:17.919Z,26.91
2024-05-09T09:06:14.880Z,27.04
2024-05-09T09:08:43.923Z,27.12
2024-05-09T09:11:11.438Z,27.27
2024-05-09T09:13:39.032Z,27.45
2024-05-09T09:16:06.919Z,27.59
2024-05-09T09:18:34.832Z,27.27
2024-05-09T09:21:03.179Z,27.45
2024-05-09T09:23:30.909Z,27.76
2024-05-09T09:25:59.785Z,27.87
2024-05-09T09:28:28.017Z,27.89
2024-05-09T09:31:02.779Z,27.98
2024-05-09T09:33:35.457Z,28.37
2024-05-09T09:36:03.993Z,28.84
2024-05-09T09:38:32.243Z,29.16
2024-05-09T09:41:05.024Z,29.16
2024-05-09T09:43:33.079Z,29.18
2024-05-09T09:46:01.860Z,29.22
2024-05-09T09:48:31.370Z,29.27
2024-05-09T09:51:00.047Z,29.26
2024-05-09T09:53:29.035Z,29.60
2024-05-09T09:55:57.505Z,30.05
2024-05-09T09:58:25.465Z,30.36
2024-05-09T10:00:53.551Z,30.40
2024-05-09T10:03:21.163Z,30.22
2024-05-09T10:05:49.332Z,30.21
2024-05-09T10:08:18.381Z,30.56
2024-05-09T10:10:50.108Z,30.86
2024-05-09T10:13:19.763Z,31.21
2024-05-09T10:15:51.526Z,31.42
2024-05-09T10:18:25.067Z,31.45
2024-05-09T10:20:55.823Z,31.72
2024-05-09T10:23:34.254Z,30.70
2024-05-09T10:26:04.366Z,30.39
2024-05-09T10:28:33.585Z,30.59
2024-05-09T10:31:15.324Z,30.46
2024-05-09T10:33:51.192Z,30.75
2024-05-09T10:36:24.279Z,31.39
2024-05-09T10:38:53.529Z,31.69
2024-05-09T10:41:22.197Z,31.60
2024-05-09T10:43:50.638Z,31.61
2024-05-09T10:46:21.395Z,31.28
2024-05-09T10:48:49.457Z,28.48
2024-05-09T10:51:19.431Z,28.34
2024-05-09T10:53:48.316Z,29.14
2024-05-09T10:56:17.026Z,30.24
2024-05-09T10:58:44.825Z,31.20
2024-05-09T11:01:12.943Z,31.43
2024-05-09T11:03:40.821Z,31.97
2024-05-09T11:06:09.518Z,32.52
2024-05-09T11:08:38.412Z,32.85
2024-05-09T11:11:08.066Z,33.09
2024-05-09T11:13:38.338Z,33.13
2024-05-09T11:16:15.744Z,33.40
2024-05-09T11:18:43.659Z,33.31
2024-05-09T11:21:13.275Z,33.31
2024-05-09T11:23:41.864Z,33.65
2024-05-09T11:26:10.537Z,34.00
2024-05-09T11:28:38.063Z,34.45
2024-05-09T11:31:08.036Z,34.38
2024-05-09T11:33:38.182Z,34.44
2024-05-09T11:36:07.346Z,34.64
2024-05-09T11:38:35.180Z,34.95
2024-05-09T11:41:03.675Z,35.36
2024-05-09T11:43:31.920Z,35.77
2024-05-09T11:46:00.055Z,35.99
2024-05-09T11:48:28.161Z,35.96
2024-05-09T11:50:56.371Z,35.89
2024-05-09T11:53:23.876Z,36.07
2024-05-09T11:55:52.086Z,36.35
2024-05-09T11:58:21.249Z,36.41
2024-05-09T12:00:49.164Z,36.58
2024-05-09T12:03:16.884Z,36.73
2024-05-09T12:05:44.847Z,36.49
2024-05-09T12:08:12.722Z,34.73
2024-05-09T12:10:40.389Z,34.00
2024-05-09T12:13:08.648Z,34.38
2024-05-09T12:15:37.925Z,35.19
2024-05-09T12:18:07.761Z,35.92
2024-05-09T12:20:38.863Z,36.49
2024-05-09T12:23:09.690Z,36.71
2024-05-09T12:25:39.590Z,36.93
2024-05-09T12:28:08.495Z,37.14
2024-05-09T12:30:41.421Z,37.09
2024-05-09T12:33:12.374Z,36.52
2024-05-09T12:35:43.433Z,36.14
2024-05-09T12:38:14.495Z,35.85
2024-05-09T12:40:42.462Z,35.98
2024-05-09T12:43:11.164Z,36.24
2024-05-09T12:45:40.044Z,36.50
2024-05-09T12:48:11.333Z,36.81
2024-05-09T12:50:40.336Z,37.05
2024-05-09T12:53:07.993Z,37.35
2024-05-09T12:55:44.105Z,37.28
2024-05-09T12:58:18.121Z,36.91
2024-05-09T13:00:46.311Z,36.99
2024-05-09T13:03:14.787Z,37.09
2024-05-09T13:05:44.924Z,36.88
2024-05-09T13:08:13.609Z,36.96
2024-05-09T13:10:41.602Z,37.24
2024-05-09T13:13:10.404Z,37.21
2024-05-09T13:15:38.102Z,36.45
2024-05-09T13:18:06.406Z,36.44
2024-05-09T13:20:36.397Z,36.82
2024-05-09T13:23:06.357Z,37.18
2024-05-09T13:25:37.102Z,37.35
2024-05-09T13:28:07.016Z,37.61
2024-05-09T13:30:40.261Z,37.66
2024-05-09T13:33:11.689Z,37.64
2024-05-09T13:35:47.291Z,37.63
2024-05-09T13:38:19.680Z,37.34
2024-05-09T13:40:48.126Z,37.43
2024-05-09T13:43:16.119Z,37.55
2024-05-09T13:45:43.840Z,37.59
2024-05-09T13:48:11.727Z,37.60
2024-05-09T13:50:39.682Z,37.57
2024-05-09T13:53:08.429Z,37.29
2024-05-09T13:55:40.423Z,37.16
2024-05-09T13:58:09.419Z,36.27
2024-05-09T14:00:46.031Z,35.65
2024-05-09T14:03:19.725Z,35.83
2024-05-09T14:05:50.859Z,36.21
2024-05-09T14:08:22.508Z,36.43
2024-05-09T14:10:50.867Z,36.63
2024-05-09T14:13:19.396Z,36.96
2024-05-09T14:15:47.426Z,37.06
2024-05-09T14:18:15.222Z,37.07
2024-05-09T14:20:43.090Z,37.11
2024-05-09T14:23:11.113Z,37.15
2024-05-09T14:25:42.088Z,37.20
2024-05-09T14:28:12.582Z,37.26
2024-05-09T14:30:41.600Z,37.17
2024-05-09T14:33:09.763Z,36.31
2024-05-09T14:35:38.988Z,36.20
2024-05-09T14:38:08.854Z,35.74
2024-05-09T14:40:41.992Z,35.54
2024-05-09T14:43:13.835Z,35.88
2024-05-09T14:45:43.319Z,36.18
2024-05-09T14:48:13.890Z,36.44
2024-05-09T14:50:41.724Z,36.47
2024-05-09T14:53:10.995Z,36.50
2024-05-09T14:55:40.426Z,36.57
2024-05-09T14:58:10.918Z,36.60
2024-05-09T15:00:45.690Z,36.67
2024-05-09T15:03:18.558Z,36.67
2024-05-09T15:05:46.995Z,36.72
2024-05-09T15:08:17.098Z,36.41
2024-05-09T15:10:44.862Z,36.15
2024-05-09T15:13:14.414Z,35.81
2024-05-09T15:15:44.099Z,35.63
2024-05-09T15:18:12.685Z,35.44
2024-05-09T15:20:41.294Z,35.26
2024-05-09T15:23:09.160Z,34.89
2024-05-09T15:25:37.376Z,34.67
2024-05-09T15:28:07.951Z,34.49
2024-05-09T15:30:36.289Z,34.32
2024-05-09T15:33:05.028Z,34.07
2024-05-09T15:35:35.166Z,33.89
2024-05-09T15:38:03.341Z,33.80
2024-05-09T15:40:38.093Z,33.56
2024-05-09T15:43:10.040Z,33.11
2024-05-09T15:45:40.627Z,32.75
2024-05-09T15:48:11.390Z,32.48
2024-05-09T15:50:41.759Z,32.22
2024-05-09T15:53:13.120Z,31.84
2024-05-09T15:55:43.010Z,31.60
2024-05-09T15:58:11.553Z,31.39
2024-05-09T16:00:42.307Z,31.15
2024-05-09T16:03:13.595Z,30.41
2024-05-09T16:05:44.027Z,29.34
2024-05-09T16:08:12.737Z,28.71
2024-05-09T16:18:00.844Z,27.78
2024-05-09T16:20:37.240Z,27.50
2024-05-09T16:23:08.838Z,27.11
2024-05-09T16:25:36.915Z,26.59
2024-05-09T16:28:08.917Z,26.16
2024-05-09T16:30:39.826Z,25.86
2024-05-09T16:33:08.703Z,25.63
2024-05-09T16:35:38.499Z,25.32
2024-05-09T16:38:06.375Z,25.03
2024-05-09T16:40:38.846Z,24.77
2024-05-09T16:43:13.038Z,24.60
2024-05-09T16:45:45.094Z,24.45
2024-05-09T16:48:13.752Z,24.31
2024-05-09T16:50:41.475Z,24.18
2024-05-09T16:53:09.010Z,24.03
2024-05-09T16:55:36.850Z,23.88
2024-05-09T16:58:06.325Z,23.67
2024-05-09T17:00:40.673Z,23.46
2024-05-09T17:03:14.456Z,23.29
2024-05-09T17:05:45.339Z,23.10
2024-05-09T17:08:15.633Z,22.96
2024-05-09T17:10:45.073Z,22.80
2024-05-09T17:13:15.138Z,22.64
2024-05-09T17:15:42.776Z,22.47
2024-05-09T17:18:10.615Z,22.31
2024-05-09T17:20:38.294Z,22.16
2024-05-09T17:23:15.058Z,22.00
2024-05-09T17:25:43.039Z,21.84
2024-05-09T17:28:11.474Z,21.67
2024-05-09T17:30:41.592Z,21.54
2024-05-09T17:33:11.310Z,21.40
2024-05-09T17:35:40.310Z,21.27
2024-05-09T17:38:08.449Z,21.15
2024-05-09T17:40:37.948Z,21.05
2024-05-09T17:43:09.638Z,20.93
2024-05-09T17:45:40.507Z,20.81
2024-05-09T17:48:10.785Z,20.65
2024-05-09T17:50:40.300Z,20.51
2024-05-09T17:53:09.218Z,20.36
2024-05-09T17:55:37.035Z,20.23
2024-05-09T17:58:05.816Z,20.10
2024-05-09T18:00:38.972Z,19.95
2024-05-09T18:03:11.976Z,19.76
2024-05-09T18:05:42.902Z,19.60
2024-05-09T18:08:11.556Z,19.44
2024-05-09T18:10:40.727Z,19.28
2024-05-09T18:13:09.515Z,19.10
2024-05-09T18:15:38.005Z,18.94
2024-05-09T18:18:07.186Z,18.81
2024-05-09T18:20:42.292Z,18.68
2024-05-09T18:23:17.843Z,18.54
2024-05-09T18:25:48.004Z,18.40
2024-05-09T18:28:16.981Z,18.28
2024-05-09T18:30:46.106Z,18.18
2024-05-09T18:33:14.178Z,18.09
2024-05-09T18:35:43.563Z,17.95
2024-05-09T18:38:11.383Z,17.80
2024-05-09T18:40:41.028Z,17.67
2024-05-09T18:43:10.530Z,17.56
2024-05-09T18:45:39.030Z,17.48
2024-05-09T18:48:09.046Z,17.43
2024-05-09T18:50:40.064Z,17.36
2024-05-09T18:53:11.376Z,17.28
2024-05-09T18:55:43.397Z,17.17
2024-05-09T18:58:11.333Z,17.06
2024-05-09T19:00:41.498Z,16.96
2024-05-09T19:03:13.759Z,16.88
2024-05-09T19:05:44.658Z,16.78
2024-05-09T19:08:14.333Z,16.65
2024-05-09T19:10:41.932Z,16.54
2024-05-09T19:13:12.581Z,16.47
2024-05-09T19:15:42.862Z,16.42
2024-05-09T19:18:13.217Z,16.35
2024-05-09T19:20:41.608Z,16.24
2024-05-09T19:23:10.611Z,16.16
2024-05-09T19:25:38.083Z,16.09
2024-05-09T19:28:06.043Z,15.99
2024-05-09T19:30:39.299Z,15.90
2024-05-09T19:33:12.573Z,15.81
2024-05-09T19:35:42.606Z,15.73
2024-05-09T19:38:10.990Z,15.64
2024-05-09T19:40:38.576Z,15.59
2024-05-09T19:43:06.780Z,15.56
2024-05-09T19:45:35.538Z,15.48
2024-05-09T19:48:05.133Z,15.41
2024-05-09T19:50:41.374Z,15.34
2024-05-09T19:53:13.765Z,15.28
2024-05-09T19:55:42.196Z,15.22
2024-05-09T19:58:10.207Z,15.15
2024-05-09T20:00:40.584Z,15.07
2024-05-09T20:03:12.300Z,14.97
2024-05-09T20:05:42.588Z,14.92
2024-05-09T20:08:11.234Z,14.87
2024-05-09T20:10:38.771Z,14.81
2024-05-09T20:13:08.015Z,14.76
2024-05-09T20:15:38.774Z,14.72
2024-05-09T20:18:07.545Z,14.64
2024-05-09T20:20:39.685Z,14.58
2024-05-09T20:23:11.075Z,14.51
2024-05-09T20:25:38.803Z,14.45
2024-05-09T20:28:07.676Z,14.34
2024-05-09T20:30:36.446Z,14.21
2024-05-09T20:33:09.244Z,14.14
2024-05-09T20:35:37.537Z,14.08
2024-05-09T20:38:05.319Z,14.02
2024-05-09T20:40:36.985Z,13.96
2024-05-09T20:43:10.716Z,13.90
2024-05-09T20:45:39.824Z,13.84
2024-05-09T20:48:08.674Z,13.76
2024-05-09T20:50:40.408Z,13.73
2024-05-09T20:53:14.693Z,13.69
2024-05-09T20:55:43.808Z,13.62
2024-05-09T20:58:12.423Z,13.55
2024-05-09T21:00:43.866Z,13.50
2024-05-09T21:03:16.402Z,13.44
2024-05-09T21:05:45.898Z,13.38
2024-05-09T21:08:14.660Z,13.30
2024-05-09T21:10:42.273Z,13.21
2024-05-09T21:13:09.903Z,13.17
2024-05-09T21:15:37.568Z,13.14
2024-05-09T21:18:05.514Z,13.10
2024-05-09T21:20:34.574Z,13.05
2024-05-09T21:23:04.972Z,13.01
2024-05-09T21:25:32.591Z,13.00
2024-05-09T21:28:00.593Z,13.00
2024-05-09T21:30:38.370Z,12.95
2024-05-09T21:33:12.244Z,12.88
2024-05-09T21:35:42.691Z,12.80
2024-05-09T21:38:10.273Z,12.76
2024-05-09T21:40:38.760Z,12.73
2024-05-09T21:43:07.502Z,12.71
2024-05-09T21:45:36.347Z,12.66
2024-05-09T21:48:05.092Z,12.59
2024-05-09T21:50:39.601Z,12.53
2024-05-09T21:53:13.128Z,12.51
2024-05-09T21:55:42.648Z,12.51
2024-05-09T21:58:13.031Z,12.46
2024-05-09T22:00:46.079Z,12.43
2024-05-09T22:03:32.032Z,12.40
2024-05-09T22:06:17.198Z,12.36
2024-05-09T22:08:45.788Z,12.27
2024-05-09T22:11:13.256Z,12.20
2024-05-09T22:13:40.695Z,12.17
2024-05-09T22:16:08.476Z,12.15
2024-05-09T22:18:36.028Z,12.13
2024-05-09T22:21:03.800Z,12.08
2024-05-09T22:23:31.305Z,12.03
2024-05-09T22:25:58.669Z,11.98
2024-05-09T22:28:26.248Z,11.95
2024-05-09T22:30:55.185Z,11.91
2024-05-09T22:33:22.760Z,11.83
2024-05-09T22:35:51.217Z,11.79
2024-05-09T22:38:18.752Z,11.76
2024-05-09T22:40:49.136Z,11.74
2024-05-09T22:43:23.956Z,11.67
2024-05-09T22:45:54.317Z,11.59
2024-05-09T22:48:23.121Z,11.54
2024-05-09T22:50:50.971Z,11.53
2024-05-09T22:53:18.393Z,11.52
2024-05-09T22:55:45.861Z,11.47
2024-05-09T23:00:54.876Z,11.37
2024-05-09T23:03:22.941Z,11.40
2024-05-09T23:05:52.808Z,11.38
2024-05-09T23:08:20.699Z,11.35
2024-05-09T23:10:48.815Z,11.31
2024-05-09T23:13:16.516Z,11.30
2024-05-09T23:15:44.022Z,11.29
2024-05-09T23:18:11.676Z,11.27
2024-05-09T23:20:40.241Z,11.27
2024-05-09T23:23:10.025Z,11.21
2024-05-09T23:25:40.848Z,11.16
2024-05-09T23:28:08.803Z,11.12
2024-05-09T23:30:39.726Z,11.06
2024-05-09T23:33:11.624Z,11.00
2024-05-09T23:35:41.207Z,10.95
2024-05-09T23:38:09.010Z,10.93
2024-05-09T23:40:39.725Z,10.88
2024-05-09T23:43:10.263Z,10.84
2024-05-09T23:45:38.230Z,10.80
2024-05-09T23:48:06.311Z,10.74
2024-05-09T23:50:37.550Z,10.71
2024-05-09T23:53:08.441Z,10.69
2024-05-09T23:55:37.738Z,10.63
2024-05-09T23:58:06.629Z,10.57
